createdAt,value
2017-07-29T00:01:09.440Z,95.84
2017-07-29T00:02:19.707Z,96.37
2017-07-29T00:03:29.658Z,95.94
2017-07-29T00:04:39.989Z,95.94
2017-07-29T00:05:49.972Z,95.94
2017-07-29T00:07:00.239Z,96.13
2017-07-29T00:08:10.191Z,95.94
2017-07-29T00:09:20.455Z,96.13
2017-07-29T00:10:30.721Z,96.13
2017-07-29T00:11:40.671Z,95.65
2017-07-29T00:12:50.940Z,96.13
2017-07-29T00:14:01.208Z,96.03
2017-07-29T00:15:11.475Z,96.08
2017-07-29T00:16:21.742Z,95.94
2017-07-29T00:17:32.008Z,95.84
2017-07-29T00:18:41.953Z,96.22
2017-07-29T00:19:52.217Z,95.94
2017-07-29T00:21:02.488Z,95.65
2017-07-29T00:22:12.441Z,95.65
2017-07-29T00:23:22.708Z,95.27
2017-07-29T00:24:32.977Z,95.46
2017-07-29T00:25:43.241Z,94.98
2017-07-29T00:26:53.510Z,94.7
2017-07-29T00:28:03.878Z,94.89
2017-07-29T00:29:14.143Z,94.7
2017-07-29T00:30:24.418Z,94.89
2017-07-29T00:31:34.690Z,93.93
2017-07-29T00:32:44.961Z,93.84
2017-07-29T00:33:55.232Z,93.93
2017-07-29T00:35:05.498Z,94.7
2017-07-29T00:36:15.762Z,94.03
2017-07-29T00:37:25.720Z,94.22
2017-07-29T00:38:35.679Z,93.84
2017-07-29T00:39:45.959Z,94.12
2017-07-29T00:40:56.235Z,94.22
2017-07-29T00:42:06.500Z,94.93
2017-07-29T00:43:16.453Z,95.32
2017-07-29T00:44:26.721Z,95.41
2017-07-29T00:45:36.357Z,95.51
2017-07-29T00:46:46.627Z,95.41
2017-07-29T00:47:56.897Z,94.84
2017-07-29T00:49:06.846Z,95.12
2017-07-29T00:50:16.484Z,94.65
2017-07-29T00:51:26.745Z,93.98
2017-07-29T00:52:37.017Z,95.12
2017-07-29T00:53:47.284Z,94.65
2017-07-29T00:54:57.548Z,95.22
2017-07-29T00:56:07.498Z,95.22
2017-07-29T00:57:17.456Z,95.61
2017-07-29T00:58:27.728Z,95.03
2017-07-29T00:59:37.996Z,95.61
2017-07-29T01:00:48.268Z,97.13
2017-07-29T01:01:58.219Z,97.65
2017-07-29T01:03:07.857Z,97.22
2017-07-29T01:04:17.491Z,97.89
2017-07-29T01:05:27.445Z,98.08
2017-07-29T01:06:37.711Z,98.18
2017-07-29T01:07:47.990Z,98.65
2017-07-29T01:08:58.251Z,98.36
2017-07-29T01:10:08.201Z,97.7
2017-07-29T01:11:18.155Z,97.41
2017-07-29T01:12:28.110Z,96.94
2017-07-29T01:13:38.375Z,96.75
2017-07-29T01:14:48.647Z,96.17
2017-07-29T01:15:58.597Z,96.36
2017-07-29T01:17:08.548Z,95.41
2017-07-29T01:18:18.824Z,95.94
2017-07-29T01:19:29.092Z,96.51
2017-07-29T01:20:39.045Z,96.89
2017-07-29T01:21:49.309Z,96.7
2017-07-29T01:22:59.581Z,96.32
2017-07-29T01:24:09.536Z,96.51
2017-07-29T01:25:19.804Z,96.41
2017-07-29T01:26:30.071Z,96.8
2017-07-29T01:27:40.028Z,97.08
2017-07-29T01:28:50.300Z,97.27
2017-07-29T01:30:00.565Z,97.84
2017-07-29T01:31:10.213Z,97.56
2017-07-29T01:32:20.477Z,98.22
2017-07-29T01:33:30.746Z,97.65
2017-07-29T01:34:41.022Z,97.46
2017-07-29T01:35:51.288Z,97.46
2017-07-29T01:37:01.553Z,98.03
2017-07-29T01:38:11.828Z,97.94
2017-07-29T01:39:21.778Z,97.94
2017-07-29T01:40:32.043Z,97.84
2017-07-29T01:41:42.322Z,97.84
2017-07-29T01:42:52.274Z,97.84
2017-07-29T01:44:02.541Z,97.75
2017-07-29T01:45:12.809Z,97.56
2017-07-29T01:46:22.775Z,98.22
2017-07-29T01:47:33.045Z,97.94
2017-07-29T01:48:43.324Z,98.03
2017-07-29T01:49:55.591Z,99.46
2017-07-29T01:51:05.860Z,99.65
2017-07-29T01:52:15.809Z,98.7
2017-07-29T01:53:26.081Z,98.32
2017-07-29T01:54:36.345Z,98.79
2017-07-29T01:55:46.610Z,98.32
2017-07-29T01:56:56.887Z,98.18
2017-07-29T01:58:07.161Z,97.65
2017-07-29T01:59:17.114Z,97.7
2017-07-29T02:00:27.385Z,96.98
2017-07-29T02:01:37.651Z,97.36
2017-07-29T02:02:47.921Z,97.27
2017-07-29T02:03:58.182Z,97.46
2017-07-29T02:05:07.823Z,97.27
2017-07-29T02:06:18.110Z,96.98
2017-07-29T02:07:28.061Z,97.27
2017-07-29T02:08:38.323Z,96.98
2017-07-29T02:09:48.587Z,97.84
2017-07-29T02:10:58.225Z,97.08
2017-07-29T02:12:08.175Z,97.27
2017-07-29T02:13:18.592Z,97.94
2017-07-29T02:14:28.860Z,98.03
2017-07-29T02:15:39.129Z,97.36
2017-07-29T02:16:49.400Z,97.84
2017-07-29T02:17:59.661Z,98.03
2017-07-29T02:19:09.616Z,98.41
2017-07-29T02:20:19.887Z,98.22
2017-07-29T02:21:29.839Z,98.41
2017-07-29T02:22:39.791Z,98.6
2017-07-29T02:23:50.061Z,98.32
2017-07-29T02:25:00.326Z,98.6
2017-07-29T02:26:10.617Z,98.32
2017-07-29T02:27:20.879Z,97.56
2017-07-29T02:28:30.827Z,97.56
2017-07-29T02:29:41.091Z,98.22
2017-07-29T02:30:51.354Z,98.41
2017-07-29T02:32:01.638Z,98.13
2017-07-29T02:33:11.917Z,98.6
2017-07-29T02:34:21.868Z,98.13
2017-07-29T02:35:32.137Z,98.03
2017-07-29T02:36:42.098Z,98.32
2017-07-29T02:37:52.053Z,98.6
2017-07-29T02:39:02.327Z,98.13
2017-07-29T02:40:12.596Z,98.22
2017-07-29T02:41:22.551Z,98.41
2017-07-29T02:42:32.819Z,98.32
2017-07-29T02:43:43.089Z,98.32
2017-07-29T02:44:53.360Z,98.51
2017-07-29T02:46:03.624Z,98.51
2017-07-29T02:47:13.886Z,99.46
2017-07-29T02:48:24.155Z,98.6
2017-07-29T02:49:34.419Z,98.6
2017-07-29T02:50:44.689Z,98.7
2017-07-29T02:51:54.968Z,98.22
2017-07-29T02:53:05.248Z,98.22
2017-07-29T02:54:15.517Z,98.7
2017-07-29T02:55:25.781Z,98.79
2017-07-29T02:56:35.738Z,98.89
2017-07-29T02:57:46.005Z,98.79
2017-07-29T02:58:56.267Z,98.79
2017-07-29T03:00:06.215Z,98.99
2017-07-29T03:01:16.177Z,99.55
2017-07-29T03:02:26.462Z,98.41
2017-07-29T03:03:36.729Z,98.7
2017-07-29T03:04:46.995Z,99.18
2017-07-29T03:05:56.947Z,99.37
2017-07-29T03:07:07.210Z,98.51
2017-07-29T03:08:17.479Z,98.89
2017-07-29T03:09:27.115Z,98.41
2017-07-29T03:10:37.383Z,98.03
2017-07-29T03:11:47.651Z,98.22
2017-07-29T03:12:57.914Z,97.56
2017-07-29T03:14:07.550Z,97.56
2017-07-29T03:15:17.817Z,98.03
2017-07-29T03:16:28.082Z,97.84
2017-07-29T03:17:38.349Z,97.56
2017-07-29T03:18:48.616Z,97.56
2017-07-29T03:19:58.886Z,98.22
2017-07-29T03:21:08.840Z,97.94
2017-07-29T03:22:19.106Z,98.03
2017-07-29T03:23:29.379Z,98.22
2017-07-29T03:24:39.329Z,98.41
2017-07-29T03:25:49.602Z,98.6
2017-07-29T03:26:59.247Z,98.32
2017-07-29T03:28:09.522Z,98.7
2017-07-29T03:29:19.789Z,99.27
2017-07-29T03:30:30.057Z,99.55
2017-07-29T03:31:40.340Z,99.37
2017-07-29T03:32:50.299Z,99.99
2017-07-29T03:34:00.570Z,99.99
2017-07-29T03:35:10.531Z,99.99
2017-07-29T03:36:20.808Z,99.99
2017-07-29T03:37:31.071Z,99.99
2017-07-29T03:38:41.033Z,99.99
2017-07-29T03:39:51.294Z,99.99
2017-07-29T03:41:01.560Z,99.99
2017-07-29T03:42:11.512Z,99.99
2017-07-29T03:43:21.782Z,99.99
2017-07-29T03:44:32.049Z,99.99
2017-07-29T03:45:42.313Z,99.99
2017-07-29T03:46:52.578Z,99.99
2017-07-29T03:48:02.542Z,99.99
2017-07-29T03:49:12.487Z,99.99
2017-07-29T03:50:22.439Z,99.51
2017-07-29T03:51:32.713Z,99.99
2017-07-29T03:52:42.987Z,99.89
2017-07-29T03:53:52.945Z,99.99
2017-07-29T03:55:02.904Z,99.99
2017-07-29T03:56:12.225Z,99.99
2017-07-29T03:57:22.496Z,99.99
2017-07-29T03:58:32.443Z,99.46
2017-07-29T03:59:42.714Z,99.56
2017-07-29T04:00:52.979Z,99.66
2017-07-29T04:02:03.252Z,99.66
2017-07-29T04:03:13.534Z,99.37
2017-07-29T04:04:23.806Z,99.56
2017-07-29T04:05:33.445Z,99.95
2017-07-29T04:06:43.404Z,99.85
2017-07-29T04:07:53.672Z,99.75
2017-07-29T04:09:03.940Z,99.61
2017-07-29T04:10:14.210Z,99.32
2017-07-29T04:11:23.846Z,99.04
2017-07-29T04:12:34.120Z,99.52
2017-07-29T04:13:44.080Z,98.75
2017-07-29T04:14:54.034Z,98.56
2017-07-29T04:16:04.302Z,98.47
2017-07-29T04:17:14.580Z,98.85
2017-07-29T04:18:24.544Z,98.66
2017-07-29T04:19:34.809Z,99.04
2017-07-29T04:20:45.079Z,98.94
2017-07-29T04:21:58.270Z,98.8
2017-07-29T04:23:08.538Z,97.85
2017-07-29T04:24:18.813Z,98.32
2017-07-29T04:25:29.082Z,98.03
2017-07-29T04:26:39.039Z,97.56
2017-07-29T04:27:49.304Z,97.94
2017-07-29T04:28:59.570Z,97.27
2017-07-29T04:30:09.840Z,97.47
2017-07-29T04:31:19.796Z,96.89
2017-07-29T04:32:30.065Z,96.89
2017-07-29T04:33:40.326Z,96.7
2017-07-29T04:34:50.598Z,96.98
2017-07-29T04:36:00.869Z,96.89
2017-07-29T04:37:10.826Z,96.7
2017-07-29T04:38:21.101Z,96.61
2017-07-29T04:39:31.373Z,96.56
2017-07-29T04:40:41.647Z,96.37
2017-07-29T04:41:51.600Z,96.17
2017-07-29T04:43:01.868Z,95.79
2017-07-29T04:44:12.146Z,96.27
2017-07-29T04:45:22.412Z,95.61
2017-07-29T04:46:32.689Z,95.79
2017-07-29T04:47:42.960Z,95.75
2017-07-29T04:48:52.917Z,95.75
2017-07-29T04:50:02.885Z,95.61
2017-07-29T04:51:13.181Z,95.65
2017-07-29T04:52:23.451Z,95.65
2017-07-29T04:53:33.408Z,95.65
2017-07-29T04:54:43.359Z,94.41
2017-07-29T04:55:53.633Z,94.79
2017-07-29T04:57:03.907Z,94.89
2017-07-29T04:58:13.866Z,94.51
2017-07-29T04:59:24.137Z,94.41
2017-07-29T05:00:34.403Z,93.21
2017-07-29T05:01:44.360Z,92.64
2017-07-29T05:02:54.628Z,92.45
2017-07-29T05:04:04.904Z,92.64
2017-07-29T05:05:15.175Z,92.83
2017-07-29T05:06:25.443Z,93.21
2017-07-29T05:07:35.713Z,91.97
2017-07-29T05:08:45.994Z,92.64
2017-07-29T05:09:56.260Z,93.02
2017-07-29T05:11:06.530Z,93.4
2017-07-29T05:12:16.804Z,93.79
2017-07-29T05:13:26.757Z,93.69
2017-07-29T05:14:36.721Z,93.31
2017-07-29T05:15:46.997Z,92.54
2017-07-29T05:16:57.271Z,91.68
2017-07-29T05:18:07.541Z,92.16
2017-07-29T05:19:17.815Z,92.16
2017-07-29T05:20:28.084Z,91.97
2017-07-29T05:21:38.349Z,91.78
2017-07-29T05:22:48.615Z,91.59
2017-07-29T05:23:58.566Z,91.54
2017-07-29T05:25:08.847Z,92.07
2017-07-29T05:26:19.118Z,92.11
2017-07-29T05:27:29.388Z,91.64
2017-07-29T05:28:39.343Z,92.16
2017-07-29T05:29:49.629Z,91.59
2017-07-29T05:30:59.581Z,91.2
2017-07-29T05:32:09.536Z,90.44
2017-07-29T05:33:19.488Z,90.06
2017-07-29T05:34:29.443Z,90.16
2017-07-29T05:35:39.714Z,89.96
2017-07-29T05:36:49.679Z,90.16
2017-07-29T05:37:59.945Z,90.16
2017-07-29T05:39:10.211Z,90.06
2017-07-29T05:40:20.477Z,89.87
2017-07-29T05:41:30.742Z,89.77
2017-07-29T05:42:41.012Z,90.63
2017-07-29T05:43:51.285Z,90.06
2017-07-29T05:45:01.560Z,89.77
2017-07-29T05:46:11.833Z,89.1
2017-07-29T05:47:22.101Z,89.1
2017-07-29T05:48:32.053Z,89.39
2017-07-29T05:49:42.007Z,89.01
2017-07-29T05:50:52.282Z,87.76
2017-07-29T05:52:02.237Z,88.95
2017-07-29T05:53:12.194Z,87.81
2017-07-29T05:54:22.149Z,87.52
2017-07-29T05:55:32.412Z,87.14
2017-07-29T05:56:42.055Z,87.71
2017-07-29T05:57:52.325Z,87.23
2017-07-29T05:59:02.592Z,86.28
2017-07-29T06:00:12.546Z,85.99
2017-07-29T06:01:22.818Z,85.71
2017-07-29T06:02:32.461Z,84.88
2017-07-29T06:03:42.734Z,85.08
2017-07-29T06:04:53.007Z,85.27
2017-07-29T06:06:02.963Z,84.35
2017-07-29T06:07:12.293Z,83.87
2017-07-29T06:08:22.559Z,83.83
2017-07-29T06:09:32.527Z,84.35
2017-07-29T06:10:42.799Z,83.39
2017-07-29T06:11:52.789Z,82.43
2017-07-29T06:13:03.057Z,83.01
2017-07-29T06:14:12.695Z,83.39
2017-07-29T06:15:22.335Z,83.11
2017-07-29T06:16:32.605Z,82.43
2017-07-29T06:17:42.883Z,81.57
2017-07-29T06:18:53.152Z,81.38
2017-07-29T06:20:03.425Z,80.76
2017-07-29T06:21:13.381Z,80.47
2017-07-29T06:22:23.662Z,80.37
2017-07-29T06:23:33.622Z,80.47
2017-07-29T06:24:43.890Z,80.18
2017-07-29T06:25:54.157Z,79.41
2017-07-29T06:27:04.435Z,78.84
2017-07-29T06:28:14.707Z,78.84
2017-07-29T06:29:24.978Z,79.7
2017-07-29T06:30:34.934Z,79.41
2017-07-29T06:31:44.897Z,78.84
2017-07-29T06:32:55.165Z,79.03
2017-07-29T06:34:05.150Z,78.64
2017-07-29T06:35:15.423Z,79.03
2017-07-29T06:36:25.693Z,80.08
2017-07-29T06:37:35.967Z,80.94
2017-07-29T06:38:45.933Z,82.19
2017-07-29T06:39:56.209Z,81.9
2017-07-29T06:41:06.489Z,82.42
2017-07-29T06:42:16.763Z,82.9
2017-07-29T06:43:27.038Z,82.04
2017-07-29T06:44:36.686Z,81.95
2017-07-29T06:45:46.953Z,81.75
2017-07-29T06:46:56.920Z,82.04
2017-07-29T06:48:07.192Z,81.85
2017-07-29T06:49:16.863Z,82.04
2017-07-29T06:50:27.146Z,82.14
2017-07-29T06:51:37.102Z,81.75
2017-07-29T06:52:47.370Z,81.18
2017-07-29T06:53:57.642Z,81.37
2017-07-29T06:55:07.929Z,81.79
2017-07-29T06:56:17.885Z,81.51
2017-07-29T06:57:28.176Z,81.6
2017-07-29T06:58:38.451Z,80.93
2017-07-29T06:59:48.724Z,81.31
2017-07-29T07:00:59.005Z,80.26
2017-07-29T07:02:08.987Z,80.74
2017-07-29T07:03:18.962Z,80.07
2017-07-29T07:04:29.281Z,79.3
2017-07-29T07:05:39.565Z,80.26
2017-07-29T07:06:49.836Z,79.59
2017-07-29T07:08:00.105Z,78.63
2017-07-29T07:09:10.081Z,78.44
2017-07-29T07:10:20.367Z,78.38
2017-07-29T07:11:30.641Z,78.19
2017-07-29T07:12:40.921Z,76.65
2017-07-29T07:13:50.898Z,77.13
2017-07-29T07:15:01.170Z,77.04
2017-07-29T07:16:11.128Z,76.31
2017-07-29T07:17:21.404Z,76.5
2017-07-29T07:18:31.681Z,77.26
2017-07-29T07:19:41.956Z,76.69
2017-07-29T07:20:51.914Z,76.31
2017-07-29T07:22:02.188Z,75.63
2017-07-29T07:23:12.469Z,75.48
2017-07-29T07:24:22.735Z,74.96
2017-07-29T07:25:33.003Z,75.06
2017-07-29T07:26:43.270Z,75.54
2017-07-29T07:27:53.542Z,75.54
2017-07-29T07:29:03.811Z,75.25
2017-07-29T07:30:14.079Z,74.39
2017-07-29T07:31:24.346Z,74.1
2017-07-29T07:32:34.659Z,74.77
2017-07-29T07:33:44.619Z,74.68
2017-07-29T07:34:54.894Z,74.87
2017-07-29T07:36:05.177Z,73.72
2017-07-29T07:37:15.134Z,74.87
2017-07-29T07:38:25.404Z,74.87
2017-07-29T07:39:35.380Z,75.06
2017-07-29T07:40:45.339Z,74.29
2017-07-29T07:41:55.616Z,74.29
2017-07-29T07:43:05.257Z,74.58
2017-07-29T07:44:15.228Z,74.68
2017-07-29T07:45:25.520Z,74.96
2017-07-29T07:46:35.790Z,76.02
2017-07-29T07:47:45.754Z,75.82
2017-07-29T07:48:55.709Z,76.12
2017-07-29T07:50:05.665Z,75.73
2017-07-29T07:51:15.945Z,74.96
2017-07-29T07:52:26.215Z,74.87
2017-07-29T07:53:36.488Z,75.4
2017-07-29T07:54:46.765Z,75.21
2017-07-29T07:55:57.035Z,75.4
2017-07-29T07:57:06.993Z,75.5
2017-07-29T07:58:17.266Z,75.4
2017-07-29T07:59:27.545Z,76.17
2017-07-29T08:00:37.817Z,76.46
2017-07-29T08:01:48.093Z,75.85
2017-07-29T08:02:58.052Z,76.23
2017-07-29T08:04:08.013Z,76.23
2017-07-29T08:05:18.283Z,76.81
2017-07-29T08:06:28.245Z,75.95
2017-07-29T08:07:38.522Z,75.95
2017-07-29T08:08:48.793Z,76.23
2017-07-29T08:09:59.063Z,76.81
2017-07-29T08:11:08.721Z,76.48
2017-07-29T08:12:18.993Z,77.25
2017-07-29T08:13:29.267Z,78.3
2017-07-29T08:14:39.233Z,78.3
2017-07-29T08:15:49.504Z,78.4
2017-07-29T08:16:59.772Z,77.82
2017-07-29T08:18:10.042Z,78.59
2017-07-29T08:19:20.314Z,78.2
2017-07-29T08:20:30.586Z,78.3
2017-07-29T08:21:40.544Z,78.2
2017-07-29T08:22:50.508Z,79.07
2017-07-29T08:24:00.778Z,78.45
2017-07-29T08:25:11.051Z,78.97
2017-07-29T08:26:21.322Z,78.93
2017-07-29T08:27:31.587Z,79.13
2017-07-29T08:28:41.861Z,79.22
2017-07-29T08:29:51.818Z,79.51
2017-07-29T08:31:01.773Z,79.13
2017-07-29T08:32:12.047Z,79.03
2017-07-29T08:33:22.320Z,79.41
2017-07-29T08:34:32.283Z,79.55
2017-07-29T08:35:42.238Z,79.32
2017-07-29T08:36:52.194Z,79.64
2017-07-29T08:38:02.472Z,79.55
2017-07-29T08:39:12.441Z,79.55
2017-07-29T08:40:22.710Z,79.55
2017-07-29T08:41:32.981Z,79.55
2017-07-29T08:42:42.946Z,79.36
2017-07-29T08:43:53.228Z,79.55
2017-07-29T08:45:03.189Z,78.78
2017-07-29T08:46:13.462Z,79.55
2017-07-29T08:47:23.864Z,79.26
2017-07-29T08:48:33.821Z,78.78
2017-07-29T08:49:44.089Z,79.07
2017-07-29T08:50:54.366Z,78.97
2017-07-29T08:52:04.644Z,79.45
2017-07-29T08:53:14.350Z,79.45
2017-07-29T08:54:24.653Z,79.78
2017-07-29T08:55:34.924Z,79.39
2017-07-29T08:56:45.199Z,79.21
2017-07-29T08:57:55.160Z,79.11
2017-07-29T08:59:05.432Z,79.21
2017-07-29T09:00:15.702Z,79.01
2017-07-29T09:01:25.669Z,78.53
2017-07-29T09:02:35.937Z,78.53
2017-07-29T09:03:46.211Z,79.39
2017-07-29T09:04:56.497Z,79.34
2017-07-29T09:06:06.774Z,79.59
2017-07-29T09:07:17.043Z,79.63
2017-07-29T09:08:27.310Z,79.53
2017-07-29T09:09:37.601Z,79.53
2017-07-29T09:10:47.558Z,79.34
2017-07-29T09:11:57.831Z,79.34
2017-07-29T09:13:07.479Z,79.44
2017-07-29T09:14:17.118Z,78.77
2017-07-29T09:15:27.392Z,79.01
2017-07-29T09:16:37.347Z,79.05
2017-07-29T09:17:47.300Z,78.92
2017-07-29T09:18:57.569Z,78.67
2017-07-29T09:20:07.943Z,79.68
2017-07-29T09:21:17.273Z,79.05
2017-07-29T09:22:26.619Z,78.53
2017-07-29T09:23:36.889Z,79.05
2017-07-29T09:24:47.164Z,79.05
2017-07-29T09:25:57.450Z,79.14
2017-07-29T09:27:07.725Z,79.53
2017-07-29T09:28:18.000Z,79.53
2017-07-29T09:29:28.275Z,79.91
2017-07-29T09:30:37.917Z,80.3
2017-07-29T09:31:48.194Z,79.72
2017-07-29T09:32:58.165Z,79.44
2017-07-29T09:34:08.130Z,79.44
2017-07-29T09:35:18.401Z,79.63
2017-07-29T09:36:28.359Z,79.14
2017-07-29T09:37:38.009Z,78.03
2017-07-29T09:38:48.280Z,77.26
2017-07-29T09:39:58.240Z,77.08
2017-07-29T09:41:08.203Z,77.36
2017-07-29T09:42:18.489Z,76.59
2017-07-29T09:43:28.766Z,76.5
2017-07-29T09:44:38.721Z,76.25
2017-07-29T09:45:48.994Z,75.57
2017-07-29T09:46:59.265Z,74.71
2017-07-29T09:48:09.547Z,75.1
2017-07-29T09:49:19.823Z,73.75
2017-07-29T09:50:29.783Z,73.18
2017-07-29T09:51:40.055Z,73.37
2017-07-29T09:52:49.705Z,72.99
2017-07-29T09:53:59.986Z,72.79
2017-07-29T09:55:09.980Z,74.17
2017-07-29T09:56:19.947Z,73.41
2017-07-29T09:57:30.226Z,73.11
2017-07-29T09:58:40.182Z,74.55
2017-07-29T09:59:50.454Z,74.08
2017-07-29T10:01:00.412Z,74.27
2017-07-29T10:02:10.689Z,74.75
2017-07-29T10:03:20.963Z,75.62
2017-07-29T10:04:30.929Z,75
2017-07-29T10:05:41.209Z,75.42
2017-07-29T10:06:51.478Z,76.82
2017-07-29T10:08:01.750Z,75.96
2017-07-29T10:09:12.023Z,76.96
2017-07-29T10:10:22.292Z,76.34
2017-07-29T10:11:32.249Z,76.54
2017-07-29T10:12:42.205Z,76.64
2017-07-29T10:13:52.171Z,75.96
2017-07-29T10:15:02.457Z,77.01
2017-07-29T10:16:12.106Z,76.98
2017-07-29T10:17:21.443Z,77.11
2017-07-29T10:18:31.725Z,76.5
2017-07-29T10:19:41.997Z,76.82
2017-07-29T10:20:52.276Z,76.73
2017-07-29T10:22:02.549Z,78.27
2017-07-29T10:23:12.822Z,78.55
2017-07-29T10:24:22.786Z,78.42
2017-07-29T10:25:33.071Z,78.32
2017-07-29T10:26:43.051Z,78.03
2017-07-29T10:27:53.329Z,78.61
2017-07-29T10:29:03.292Z,77.17
2017-07-29T10:30:12.937Z,76.69
2017-07-29T10:31:23.209Z,77.65
2017-07-29T10:32:33.516Z,77.46
2017-07-29T10:33:43.473Z,76.92
2017-07-29T10:34:53.751Z,77.36
2017-07-29T10:36:03.082Z,77.11
2017-07-29T10:37:13.046Z,77.65
2017-07-29T10:38:23.318Z,77.98
2017-07-29T10:39:33.603Z,78.55
2017-07-29T10:40:43.879Z,76.64
2017-07-29T10:41:53.535Z,76.64
2017-07-29T10:43:03.496Z,76.64
2017-07-29T10:44:13.771Z,76.29
2017-07-29T10:45:23.730Z,76.67
2017-07-29T10:46:33.383Z,76.44
2017-07-29T10:47:43.670Z,76.96
2017-07-29T10:48:53.633Z,77.83
2017-07-29T10:50:03.587Z,76.29
2017-07-29T10:51:13.237Z,76.19
2017-07-29T10:52:23.518Z,76.39
2017-07-29T10:53:33.493Z,76.67
2017-07-29T10:54:43.454Z,75.07
2017-07-29T10:55:53.732Z,75.56
2017-07-29T10:57:04.053Z,74.69
2017-07-29T10:58:14.022Z,74.3
2017-07-29T10:59:24.302Z,74.15
2017-07-29T11:00:34.578Z,72.9
2017-07-29T11:01:44.859Z,73.47
2017-07-29T11:02:54.819Z,73.47
2017-07-29T11:04:04.777Z,73.77
2017-07-29T11:05:15.054Z,73
2017-07-29T11:06:24.699Z,73.09
2017-07-29T11:07:34.974Z,71.78
2017-07-29T11:08:44.937Z,71.4
2017-07-29T11:09:54.894Z,70.92
2017-07-29T11:11:05.174Z,70.62
2017-07-29T11:12:15.136Z,70.92
2017-07-29T11:13:25.413Z,70.05
2017-07-29T11:14:35.373Z,69.57
2017-07-29T11:15:45.336Z,70.24
2017-07-29T11:16:55.297Z,70.05
2017-07-29T11:18:05.258Z,69.76
2017-07-29T11:19:14.907Z,69.28
2017-07-29T11:20:25.192Z,69.09
2017-07-29T11:21:35.159Z,70.72
2017-07-29T11:22:45.118Z,68.99
2017-07-29T11:23:55.398Z,69.63
2017-07-29T11:25:05.361Z,70.5
2017-07-29T11:26:15.633Z,71.46
2017-07-29T11:27:25.591Z,70.01
2017-07-29T11:28:35.252Z,69.34
2017-07-29T11:29:45.525Z,70.27
2017-07-29T11:30:55.798Z,70.27
2017-07-29T11:32:05.754Z,70.65
2017-07-29T11:33:15.716Z,70.14
2017-07-29T11:34:26.007Z,70.04
2017-07-29T11:35:35.963Z,70.14
2017-07-29T11:36:45.931Z,70.9
2017-07-29T11:37:55.573Z,70.52
2017-07-29T11:39:05.555Z,70.97
2017-07-29T11:40:15.517Z,71.25
2017-07-29T11:41:25.793Z,71.25
2017-07-29T11:42:36.079Z,71.64
2017-07-29T11:43:46.359Z,71.64
2017-07-29T11:44:56.633Z,71.83
2017-07-29T11:46:06.908Z,71.83
2017-07-29T11:47:16.876Z,72.22
2017-07-29T11:48:27.165Z,72.79
2017-07-29T11:49:37.128Z,72.69
2017-07-29T11:50:47.086Z,73.18
2017-07-29T11:51:57.356Z,73.85
2017-07-29T11:53:07.639Z,74.43
2017-07-29T11:54:17.622Z,74.04
2017-07-29T11:55:27.902Z,74.04
2017-07-29T11:56:37.544Z,74.43
2017-07-29T11:57:47.504Z,75.67
2017-07-29T11:58:57.457Z,75.54
2017-07-29T12:00:07.731Z,76.31
2017-07-29T12:01:17.375Z,76.21
2017-07-29T12:02:27.648Z,76.59
2017-07-29T12:03:37.347Z,76.5
2017-07-29T12:04:47.626Z,76.5
2017-07-29T12:05:57.915Z,76.69
2017-07-29T12:07:08.198Z,76.88
2017-07-29T12:08:18.493Z,76.94
2017-07-29T12:09:28.554Z,77.23
2017-07-29T12:10:38.834Z,77.04
2017-07-29T12:11:49.108Z,77.23
2017-07-29T12:12:59.068Z,77.08
2017-07-29T12:14:09.027Z,78.32
2017-07-29T12:15:19.309Z,78.52
2017-07-29T12:16:29.585Z,77.75
2017-07-29T12:17:39.232Z,77.36
2017-07-29T12:18:49.513Z,77.94
2017-07-29T12:19:59.786Z,78.13
2017-07-29T12:21:09.741Z,78.7
2017-07-29T12:22:19.695Z,79.76
2017-07-29T12:23:29.971Z,79.96
2017-07-29T12:24:39.933Z,79.96
2017-07-29T12:25:50.227Z,80.15
2017-07-29T12:27:00.496Z,78.61
2017-07-29T12:28:10.467Z,78.23
2017-07-29T12:29:20.423Z,77.69
2017-07-29T12:30:30.691Z,76.92
2017-07-29T12:31:40.964Z,77.98
2017-07-29T12:32:51.238Z,78.5
2017-07-29T12:34:01.202Z,77.58
2017-07-29T12:35:11.480Z,74.79
2017-07-29T12:36:21.755Z,73.57
2017-07-29T12:37:31.406Z,72.52
2017-07-29T12:38:41.682Z,72.94
2017-07-29T12:39:51.962Z,72.45
2017-07-29T12:41:02.238Z,73.22
2017-07-29T12:42:12.199Z,72.97
2017-07-29T12:43:22.499Z,72.3
2017-07-29T12:44:32.770Z,72.2
2017-07-29T12:45:42.755Z,71.76
2017-07-29T12:46:52.715Z,71.85
2017-07-29T12:48:02.674Z,72.24
2017-07-29T12:49:12.642Z,72.81
2017-07-29T12:50:22.913Z,70.6
2017-07-29T12:51:32.877Z,71.18
2017-07-29T12:52:42.850Z,69.15
2017-07-29T12:53:53.128Z,67.23
2017-07-29T12:55:03.403Z,71.53
2017-07-29T12:56:13.680Z,71.91
2017-07-29T12:57:23.950Z,67.77
2017-07-29T12:58:33.596Z,69.28
2017-07-29T12:59:43.561Z,69.47
2017-07-29T13:00:53.521Z,71.01
2017-07-29T13:02:03.807Z,71.36
2017-07-29T13:03:13.765Z,72.13
2017-07-29T13:04:24.040Z,72.8
2017-07-29T13:05:34.005Z,71.84
2017-07-29T13:06:44.288Z,71.65
2017-07-29T13:07:54.565Z,71.26
2017-07-29T13:09:04.838Z,71.17
2017-07-29T13:10:14.797Z,70.98
2017-07-29T13:11:25.069Z,71.59
2017-07-29T13:12:35.343Z,72.61
2017-07-29T13:13:45.307Z,72.71
2017-07-29T13:14:55.271Z,72.42
2017-07-29T13:16:05.229Z,72.13
2017-07-29T13:17:15.502Z,72.45
2017-07-29T13:18:25.770Z,73.09
2017-07-29T13:19:36.044Z,72.74
2017-07-29T13:20:46.009Z,71.11
2017-07-29T13:21:56.290Z,71.4
2017-07-29T13:23:05.934Z,70.82
2017-07-29T13:24:15.892Z,71.4
2017-07-29T13:25:26.473Z,70.92
2017-07-29T13:26:36.747Z,67.58
2017-07-29T13:27:47.024Z,71.3
2017-07-29T13:28:57.296Z,72.32
2017-07-29T13:30:07.593Z,74.6
2017-07-29T13:31:17.870Z,74.54
2017-07-29T13:32:27.829Z,74.44
2017-07-29T13:33:37.790Z,75.11
2017-07-29T13:34:48.085Z,75.02
2017-07-29T13:35:58.045Z,73.57
2017-07-29T13:37:08.006Z,74.25
2017-07-29T13:38:18.280Z,74.54
2017-07-29T13:39:28.569Z,75.07
2017-07-29T13:40:38.535Z,74.92
2017-07-29T13:41:48.493Z,74.34
2017-07-29T13:42:58.767Z,73.06
2017-07-29T13:44:08.731Z,73.54
2017-07-29T13:45:19.004Z,73.38
2017-07-29T13:46:29.276Z,74.15
2017-07-29T13:47:39.240Z,74.29
2017-07-29T13:48:49.513Z,74.57
2017-07-29T13:49:59.478Z,72.2
2017-07-29T13:51:09.439Z,72.24
2017-07-29T13:52:19.717Z,72.72
2017-07-29T13:53:29.680Z,71.7
2017-07-29T13:54:39.955Z,70.73
2017-07-29T13:55:50.229Z,70.67
2017-07-29T13:57:00.509Z,67.04
2017-07-29T13:58:10.473Z,64.4
2017-07-29T13:59:20.758Z,64.59
2017-07-29T14:00:30.727Z,63.95
2017-07-29T14:01:40.690Z,63.4
2017-07-29T14:02:50.350Z,62.53
2017-07-29T14:04:00.643Z,62.07
2017-07-29T14:05:10.302Z,60.91
2017-07-29T14:06:20.266Z,61.11
2017-07-29T14:07:30.544Z,59.94
2017-07-29T14:08:40.506Z,59.94
2017-07-29T14:09:50.791Z,59.05
2017-07-29T14:11:01.068Z,60.69
2017-07-29T14:12:11.031Z,59.91
2017-07-29T14:13:21.310Z,57.86
2017-07-29T14:14:31.589Z,58.98
2017-07-29T14:15:41.865Z,60.14
2017-07-29T14:16:52.143Z,60.53
2017-07-29T14:18:02.421Z,59.99
2017-07-29T14:19:12.705Z,59.28
2017-07-29T14:20:22.673Z,59.86
2017-07-29T14:21:32.948Z,60.73
2017-07-29T14:22:43.279Z,60.8
2017-07-29T14:23:53.249Z,60.41
2017-07-29T14:25:02.906Z,62.25
2017-07-29T14:26:12.874Z,62.34
2017-07-29T14:27:23.150Z,62.15
2017-07-29T14:28:33.105Z,62.82
2017-07-29T14:29:43.072Z,62.63
2017-07-29T14:30:53.347Z,62.79
2017-07-29T14:32:02.992Z,63.18
2017-07-29T14:33:12.957Z,63.67
2017-07-29T14:34:22.926Z,64.31
2017-07-29T14:35:32.887Z,63.82
2017-07-29T14:36:43.171Z,63.5
2017-07-29T14:37:53.456Z,64.28
2017-07-29T14:39:03.436Z,64.86
2017-07-29T14:40:13.709Z,65.63
2017-07-29T14:41:23.990Z,65.98
2017-07-29T14:42:33.689Z,66.07
2017-07-29T14:43:43.353Z,66.36
2017-07-29T14:44:53.629Z,67.68
2017-07-29T14:46:03.904Z,67.29
2017-07-29T14:47:14.178Z,68.06
2017-07-29T14:48:24.445Z,68.44
2017-07-29T14:49:34.718Z,68.84
2017-07-29T14:50:44.685Z,68.9
2017-07-29T14:51:54.961Z,69.18
2017-07-29T14:53:04.942Z,69.28
2017-07-29T14:54:15.218Z,68.6
2017-07-29T14:55:25.492Z,69.28
2017-07-29T14:56:35.764Z,69.09
2017-07-29T14:57:45.404Z,69.57
2017-07-29T14:58:55.046Z,70.72
2017-07-29T15:00:05.322Z,70.05
2017-07-29T15:01:15.284Z,69.57
2017-07-29T15:02:25.556Z,69.18
2017-07-29T15:03:35.516Z,69.09
2017-07-29T15:04:45.475Z,69.38
2017-07-29T15:05:55.752Z,69.41
2017-07-29T15:07:06.031Z,69.79